createdAt,value
2022-11-05T00:00:15.916Z,6.22
2022-11-05T00:02:42.417Z,5.85
2022-11-05T00:05:11.495Z,6.38
2022-11-05T00:07:49.464Z,5.43
2022-11-05T00:10:22.718Z,5.97
2022-11-05T00:12:49.320Z,5.65
2022-11-05T00:15:15.903Z,6.05
2022-11-05T00:17:42.928Z,5.65
2022-11-05T00:20:10.750Z,6.28
2022-11-05T00:22:37.222Z,7.15
2022-11-05T00:25:03.964Z,6.88
2022-11-05T00:27:33.149Z,7.18
2022-11-05T00:29:59.656Z,7.22
2022-11-05T00:32:26.185Z,8.05
2022-11-05T00:34:52.624Z,8.07
2022-11-05T00:37:19.084Z,7.07
2022-11-05T00:39:45.523Z,7.57
2022-11-05T00:42:12.024Z,7.43
2022-11-05T00:44:38.525Z,6.25
2022-11-05T00:47:04.987Z,7.85
2022-11-05T00:49:31.437Z,7.28
2022-11-05T00:51:57.882Z,7.00
2022-11-05T00:54:24.394Z,7.25
2022-11-05T00:56:50.904Z,6.93
2022-11-05T00:59:17.308Z,6.80
2022-11-05T01:01:43.945Z,7.20
2022-11-05T01:04:10.614Z,6.85
2022-11-05T01:06:37.086Z,6.47
2022-11-05T01:09:03.578Z,7.13
2022-11-05T01:11:30.070Z,7.45
2022-11-05T01:13:56.537Z,6.72
2022-11-05T01:16:24.201Z,7.03
2022-11-05T01:18:50.699Z,7.05
2022-11-05T01:21:17.241Z,8.00
2022-11-05T01:23:43.754Z,7.95
2022-11-05T01:26:10.494Z,7.45
2022-11-05T01:28:37.082Z,7.20
2022-11-05T01:31:03.791Z,7.78
2022-11-05T01:33:30.282Z,7.38
2022-11-05T01:35:56.741Z,7.45
2022-11-05T01:38:23.672Z,7.32
2022-11-05T01:40:50.279Z,6.65
2022-11-05T01:43:22.402Z,6.50
2022-11-05T01:45:57.303Z,5.75
2022-11-05T01:48:28.346Z,5.88
2022-11-05T01:51:01.250Z,5.88
2022-11-05T01:53:38.703Z,5.80
2022-11-05T01:56:13.578Z,5.82
2022-11-05T01:58:47.523Z,6.75
2022-11-05T02:01:14.664Z,5.00
2022-11-05T02:03:42.822Z,4.93
2022-11-05T02:06:10.319Z,4.88
2022-11-05T02:08:46.064Z,4.53
2022-11-05T02:11:16.533Z,4.82
2022-11-05T02:13:43.086Z,4.88
2022-11-05T02:16:29.729Z,4.82
2022-11-05T02:19:19.093Z,5.50
2022-11-05T02:22:19.887Z,4.88
2022-11-05T02:25:43.480Z,4.80
2022-11-05T02:28:43.417Z,5.28
2022-11-05T02:31:44.882Z,4.68
2022-11-05T02:34:23.268Z,5.18
2022-11-05T02:37:01.918Z,4.75
2022-11-05T02:39:50.878Z,5.72
2022-11-05T02:42:26.440Z,4.70
2022-11-05T02:45:14.841Z,4.88
2022-11-05T02:47:45.227Z,4.85
2022-11-05T02:50:35.291Z,4.40
2022-11-05T02:53:06.117Z,4.75
2022-11-05T02:55:41.735Z,4.20
2022-11-05T02:58:09.065Z,5.72
2022-11-05T03:00:41.012Z,4.95
2022-11-05T03:03:36.470Z,4.90
2022-11-05T03:06:21.627Z,4.97
2022-11-05T03:09:00.048Z,4.82
2022-11-05T03:11:30.536Z,4.60
2022-11-05T03:13:59.945Z,4.32
2022-11-05T03:16:40.468Z,4.03
2022-11-05T03:19:10.625Z,5.03
2022-11-05T03:22:11.113Z,4.70
2022-11-05T03:24:44.821Z,4.97
2022-11-05T03:27:18.413Z,4.55
2022-11-05T03:29:51.137Z,4.22
2022-11-05T03:32:20.398Z,4.65
2022-11-05T03:34:51.541Z,6.13
2022-11-05T03:37:23.097Z,4.68
2022-11-05T03:39:58.536Z,5.13
2022-11-05T03:42:29.064Z,3.95
2022-11-05T03:44:59.556Z,4.18
2022-11-05T03:47:32.537Z,4.93
2022-11-05T03:50:10.058Z,4.03
2022-11-05T03:52:45.769Z,4.43
2022-11-05T03:55:12.675Z,3.65
2022-11-05T03:57:44.020Z,4.00
2022-11-05T04:00:11.368Z,4.28
2022-11-05T04:02:41.643Z,4.00
2022-11-05T04:05:08.262Z,3.67
2022-11-05T04:07:34.711Z,3.75
2022-11-05T04:10:01.240Z,3.70
2022-11-05T04:12:27.715Z,4.55
2022-11-05T04:14:54.283Z,4.47
2022-11-05T04:17:20.734Z,4.00
2022-11-05T04:19:47.309Z,3.70
2022-11-05T04:22:13.755Z,4.00
2022-11-05T04:24:40.288Z,3.33
2022-11-05T04:27:06.740Z,3.58
2022-11-05T04:29:33.213Z,4.18
2022-11-05T04:31:59.686Z,3.75
2022-11-05T04:34:26.190Z,3.83
2022-11-05T04:36:53.225Z,4.22
2022-11-05T04:39:21.286Z,3.78
2022-11-05T04:41:48.126Z,3.95
2022-11-05T04:44:15.567Z,3.70
2022-11-05T04:46:42.316Z,3.63
2022-11-05T04:49:08.796Z,3.92
2022-11-05T04:51:35.285Z,3.50
2022-11-05T04:54:01.714Z,3.00
2022-11-05T04:56:28.220Z,3.60
2022-11-05T04:58:54.693Z,2.88
2022-11-05T05:01:23.416Z,3.53
2022-11-05T05:03:51.561Z,3.28
2022-11-05T05:06:18.601Z,3.55
2022-11-05T05:08:47.073Z,3.42
2022-11-05T05:11:16.593Z,3.15
2022-11-05T05:13:43.364Z,3.00
2022-11-05T05:16:18.209Z,3.35
2022-11-05T05:18:46.349Z,2.97
2022-11-05T05:21:13.657Z,4.32
2022-11-05T05:23:40.110Z,3.30
2022-11-05T05:26:06.592Z,4.00
2022-11-05T05:28:33.411Z,3.90
2022-11-05T05:31:00.655Z,4.05
2022-11-05T05:33:28.215Z,3.70
2022-11-05T05:35:57.625Z,4.07
2022-11-05T05:38:24.733Z,3.92
2022-11-05T05:40:51.756Z,4.30
2022-11-05T05:43:18.274Z,3.72
2022-11-05T05:45:44.783Z,4.93
2022-11-05T05:48:11.354Z,4.47
2022-11-05T05:50:37.864Z,4.70
2022-11-05T05:53:07.816Z,4.28
2022-11-05T05:55:34.488Z,4.43
2022-11-05T05:58:00.932Z,4.18
2022-11-05T06:00:27.432Z,3.80
2022-11-05T06:02:55.717Z,4.07
2022-11-05T06:05:22.404Z,5.10
2022-11-05T06:07:55.933Z,4.53
2022-11-05T06:10:22.774Z,4.38
2022-11-05T06:12:49.231Z,4.70
2022-11-05T06:15:16.089Z,4.35
2022-11-05T06:17:45.931Z,4.35
2022-11-05T06:20:13.125Z,4.43
2022-11-05T06:22:39.671Z,4.38
2022-11-05T06:25:07.305Z,4.60
2022-11-05T06:27:34.358Z,4.20
2022-11-05T06:30:00.843Z,4.53
2022-11-05T06:32:27.292Z,5.22
2022-11-05T06:34:53.788Z,4.95
2022-11-05T06:37:20.257Z,4.43
2022-11-05T06:39:46.744Z,6.60
2022-11-05T06:42:20.286Z,4.43
2022-11-05T06:44:46.789Z,5.32
2022-11-05T06:47:13.231Z,4.45
2022-11-05T06:49:39.723Z,5.80
2022-11-05T06:52:06.292Z,4.68
2022-11-05T06:54:32.781Z,4.32
2022-11-05T06:56:59.249Z,4.15
2022-11-05T06:59:25.762Z,4.45
2022-11-05T07:01:52.317Z,4.32
2022-11-05T07:04:18.823Z,4.90
2022-11-05T07:06:45.252Z,5.05
2022-11-05T07:09:11.782Z,4.43
2022-11-05T07:11:38.224Z,4.68
2022-11-05T07:14:04.750Z,4.50
2022-11-05T07:16:31.233Z,5.70
2022-11-05T07:18:57.690Z,4.50
2022-11-05T07:21:24.236Z,4.63
2022-11-05T07:23:50.838Z,5.63
2022-11-05T07:26:17.338Z,4.72
2022-11-05T07:28:43.825Z,4.88
2022-11-05T07:31:10.281Z,4.53
2022-11-05T07:33:36.963Z,4.40
2022-11-05T07:36:03.711Z,4.70
2022-11-05T07:38:30.642Z,4.45
2022-11-05T07:40:59.468Z,4.80
2022-11-05T07:43:25.977Z,4.70
2022-11-05T07:45:52.518Z,4.53
2022-11-05T07:48:19.027Z,4.55
2022-11-05T07:50:45.587Z,5.25
2022-11-05T07:53:14.483Z,4.63
2022-11-05T07:55:42.009Z,4.32
2022-11-05T07:58:09.700Z,5.90
2022-11-05T08:00:36.762Z,4.45
2022-11-05T08:03:08.176Z,4.75
2022-11-05T08:05:42.514Z,4.65
2022-11-05T08:10:37.041Z,4.78
2022-11-05T08:13:04.881Z,4.45
2022-11-05T08:15:31.527Z,5.00
2022-11-05T08:18:02.740Z,4.90
2022-11-05T08:20:29.393Z,3.25
2022-11-05T08:22:56.361Z,4.47
2022-11-05T08:25:23.525Z,4.45
2022-11-05T08:27:58.633Z,3.92
2022-11-05T08:30:25.729Z,3.88
2022-11-05T08:32:57.015Z,3.67
2022-11-05T08:35:23.739Z,3.90
2022-11-05T08:37:50.233Z,4.32
2022-11-05T08:40:16.854Z,3.60
2022-11-05T08:42:43.366Z,3.38
2022-11-05T08:45:10.144Z,3.72
2022-11-05T08:47:36.659Z,3.80
2022-11-05T08:50:03.316Z,3.90
2022-11-05T08:52:29.843Z,3.85
2022-11-05T08:54:56.474Z,3.45
2022-11-05T08:57:22.993Z,4.35
2022-11-05T08:59:49.537Z,4.72
2022-11-05T09:02:16.146Z,3.30
2022-11-05T09:04:42.698Z,4.10
2022-11-05T09:07:09.126Z,3.63
2022-11-05T09:09:35.606Z,3.83
2022-11-05T09:12:17.407Z,4.53
2022-11-05T09:14:44.003Z,3.42
2022-11-05T09:17:21.565Z,2.83
2022-11-05T09:19:48.516Z,3.53
2022-11-05T09:22:15.212Z,3.35
2022-11-05T09:24:43.209Z,3.25
2022-11-05T09:27:11.327Z,3.78
2022-11-05T09:29:38.057Z,3.60
2022-11-05T09:32:07.331Z,3.97
2022-11-05T09:34:34.806Z,3.47
2022-11-05T09:37:02.202Z,4.25
2022-11-05T09:39:29.027Z,3.40
2022-11-05T09:42:02.121Z,4.63
2022-11-05T09:44:40.661Z,3.58
2022-11-05T09:47:13.166Z,3.97
2022-11-05T09:49:44.276Z,3.47
2022-11-05T09:52:21.233Z,3.50
2022-11-05T09:54:47.943Z,4.25
2022-11-05T09:57:20.996Z,3.92
2022-11-05T10:00:08.571Z,4.03
2022-11-05T10:02:42.038Z,3.45
2022-11-05T10:05:12.161Z,3.70
2022-11-05T10:07:49.116Z,3.63
2022-11-05T10:10:24.301Z,3.00
2022-11-05T10:12:55.068Z,4.07
2022-11-05T10:15:36.332Z,4.07
2022-11-05T10:18:12.396Z,3.15
2022-11-05T10:20:39.348Z,3.88
2022-11-05T10:23:18.182Z,2.50
2022-11-05T10:25:55.005Z,3.42
2022-11-05T10:28:24.305Z,2.95
2022-11-05T10:30:56.348Z,3.28
2022-11-05T10:33:48.512Z,2.60
2022-11-05T10:36:27.705Z,2.75
2022-11-05T10:39:00.391Z,2.70
2022-11-05T10:41:53.647Z,3.60
2022-11-05T10:45:02.233Z,3.15
2022-11-05T10:47:53.252Z,2.42
2022-11-05T10:50:24.470Z,2.28
2022-11-05T10:53:01.176Z,3.13
2022-11-05T10:55:35.128Z,2.20
2022-11-05T10:58:16.731Z,2.33
2022-11-05T11:00:45.591Z,2.40
2022-11-05T11:03:45.848Z,2.20
2022-11-05T11:06:33.204Z,3.22
2022-11-05T11:09:06.367Z,1.90
2022-11-05T11:11:37.685Z,1.77
2022-11-05T11:14:19.998Z,1.90
2022-11-05T11:16:51.446Z,2.03
2022-11-05T11:22:07.194Z,1.92
2022-11-05T11:24:45.399Z,1.95
2022-11-05T11:27:16.648Z,2.42
2022-11-05T11:29:49.610Z,2.00
2022-11-05T11:32:19.260Z,1.77
2022-11-05T11:34:52.960Z,1.92
2022-11-05T11:37:28.904Z,1.77
2022-11-05T11:40:21.992Z,1.60
2022-11-05T11:42:56.267Z,1.88
2022-11-05T11:45:33.122Z,2.45
2022-11-05T11:48:04.501Z,1.70
2022-11-05T11:50:38.593Z,1.80
2022-11-05T11:53:20.264Z,1.50
2022-11-05T11:58:45.976Z,1.70
2022-11-05T12:01:37.580Z,1.20
2022-11-05T12:04:10.056Z,2.00
2022-11-05T12:07:07.333Z,1.60
2022-11-05T12:09:49.914Z,1.30
2022-11-05T12:12:20.888Z,1.70
2022-11-05T12:15:03.532Z,2.08
2022-11-05T12:17:44.949Z,1.45
2022-11-05T12:20:16.782Z,2.10
2022-11-05T12:22:51.862Z,2.03
2022-11-05T12:25:25.216Z,1.80
2022-11-05T12:28:17.046Z,1.95
2022-11-05T12:33:38.329Z,1.92
2022-11-05T12:36:21.200Z,1.95
2022-11-05T12:39:13.286Z,2.20
2022-11-05T12:42:15.269Z,2.15
2022-11-05T12:45:20.886Z,2.78
2022-11-05T12:48:24.701Z,2.13
2022-11-05T12:51:08.342Z,2.17
2022-11-05T12:54:07.351Z,2.30
2022-11-05T12:56:57.168Z,2.10
2022-11-05T12:59:39.700Z,2.40
2022-11-05T13:02:19.483Z,2.53
2022-11-05T13:04:57.794Z,2.65
2022-11-05T13:07:30.200Z,2.22
2022-11-05T13:10:03.187Z,2.83
2022-11-05T13:12:33.206Z,2.40
2022-11-05T13:15:05.286Z,2.10
2022-11-05T13:17:48.985Z,2.10
2022-11-05T13:20:21.322Z,1.98
2022-11-05T13:23:06.339Z,2.63
2022-11-05T13:25:37.619Z,2.50
2022-11-05T13:28:38.352Z,1.58
2022-11-05T13:31:09.870Z,1.80
2022-11-05T13:36:32.382Z,2.13
2022-11-05T13:39:17.834Z,1.70
2022-11-05T13:42:11.945Z,1.80
2022-11-05T13:44:50.655Z,1.98
2022-11-05T13:47:35.982Z,1.70
2022-11-05T13:50:30.430Z,2.13
2022-11-05T13:53:38.614Z,1.70
2022-11-05T13:56:05.096Z,1.98
2022-11-05T13:58:49.803Z,2.17
2022-11-05T14:01:35.012Z,1.95
2022-11-05T14:04:02.976Z,2.22
2022-11-05T14:06:36.144Z,2.85
2022-11-05T14:09:08.630Z,1.92
2022-11-05T14:11:38.293Z,2.45
2022-11-05T14:14:08.704Z,2.17
2022-11-05T14:17:14.848Z,2.65
2022-11-05T14:20:23.514Z,1.90
2022-11-05T14:22:50.204Z,2.75
2022-11-05T14:25:39.658Z,1.85
2022-11-05T14:28:35.210Z,2.28
2022-11-05T14:34:43.039Z,2.10
2022-11-05T14:37:12.660Z,1.70
2022-11-05T14:39:40.865Z,2.05
2022-11-05T14:42:14.837Z,1.98
2022-11-05T14:44:56.649Z,2.30
2022-11-05T14:47:26.091Z,2.20
2022-11-05T14:49:58.603Z,2.33
2022-11-05T14:52:25.146Z,1.85
2022-11-05T14:54:54.946Z,2.63
2022-11-05T14:57:43.190Z,2.45
2022-11-05T15:00:28.470Z,1.92
2022-11-05T15:03:00.813Z,2.20
2022-11-05T15:05:48.607Z,2.65
2022-11-05T15:08:47.487Z,2.38
2022-11-05T15:11:21.687Z,2.75
2022-11-05T15:13:54.259Z,2.00
2022-11-05T15:16:36.697Z,2.22
2022-11-05T15:19:05.050Z,2.08
2022-11-05T15:21:35.903Z,1.88
2022-11-05T15:24:03.873Z,2.00
2022-11-05T15:26:47.376Z,2.72
2022-11-05T15:29:20.395Z,1.98
2022-11-05T15:31:47.391Z,2.63
2022-11-05T15:34:16.843Z,2.20
2022-11-05T15:36:55.396Z,1.90
2022-11-05T15:39:38.580Z,2.03
2022-11-05T15:42:11.983Z,1.80
2022-11-05T15:44:41.044Z,2.58
2022-11-05T15:47:11.111Z,1.88
2022-11-05T15:49:38.025Z,1.70
2022-11-05T15:52:04.714Z,1.80
2022-11-05T15:54:31.761Z,1.77
2022-11-05T15:56:59.652Z,2.10
2022-11-05T15:59:29.300Z,1.90
2022-11-05T16:02:20.538Z,1.70
2022-11-05T16:04:48.296Z,2.53
2022-11-05T16:07:15.965Z,3.47
2022-11-05T16:09:51.962Z,3.72
2022-11-05T16:12:18.476Z,3.72
2022-11-05T16:14:58.377Z,3.15
2022-11-05T16:17:27.966Z,2.78
2022-11-05T16:19:54.828Z,3.22
2022-11-05T16:22:22.106Z,2.85
2022-11-05T16:24:49.339Z,2.42
2022-11-05T16:27:21.898Z,2.50
2022-11-05T16:29:51.627Z,4.00
2022-11-05T16:32:26.915Z,4.20
2022-11-05T16:35:03.203Z,3.33
2022-11-05T16:37:36.450Z,3.90
2022-11-05T16:40:09.634Z,2.83
2022-11-05T16:42:38.871Z,3.50
2022-11-05T16:45:07.149Z,2.83
2022-11-05T16:47:33.858Z,3.58
2022-11-05T16:50:00.480Z,3.58
2022-11-05T16:52:29.907Z,4.38
2022-11-05T16:54:56.402Z,4.10
2022-11-05T16:57:29.078Z,3.22
2022-11-05T16:59:56.156Z,3.92
2022-11-05T17:02:23.125Z,3.13
2022-11-05T17:04:49.972Z,3.15
2022-11-05T17:07:16.582Z,3.08
2022-11-05T17:09:43.196Z,5.28
2022-11-05T17:12:11.522Z,7.63
2022-11-05T17:14:38.440Z,5.65
2022-11-05T17:17:05.574Z,4.40
2022-11-05T17:19:32.230Z,5.65
2022-11-05T17:21:58.815Z,3.67
2022-11-05T17:24:25.324Z,3.72
2022-11-05T17:26:51.854Z,3.38
2022-11-05T17:29:18.324Z,3.40
2022-11-05T17:31:44.795Z,3.42
2022-11-05T17:34:11.355Z,3.60
2022-11-05T17:36:37.843Z,4.93
2022-11-05T17:39:04.307Z,4.20
2022-11-05T17:41:30.829Z,4.30
2022-11-05T17:43:57.726Z,3.53
2022-11-05T17:46:24.577Z,4.43
2022-11-05T17:48:51.069Z,5.72
2022-11-05T17:51:19.311Z,4.88
2022-11-05T17:53:47.033Z,5.00
2022-11-05T17:56:24.572Z,4.63
2022-11-05T17:58:55.904Z,4.20
2022-11-05T18:01:34.320Z,4.68
2022-11-05T18:04:07.157Z,3.20
2022-11-05T18:06:36.599Z,5.63
2022-11-05T18:09:04.621Z,3.65
2022-11-05T18:11:32.208Z,3.08
2022-11-05T18:13:58.774Z,2.75
2022-11-05T18:16:25.364Z,2.97
2022-11-05T18:18:51.938Z,3.15
2022-11-05T18:21:18.644Z,3.65
2022-11-05T18:23:45.292Z,3.97
2022-11-05T18:26:14.033Z,4.25
2022-11-05T18:28:40.895Z,4.50
2022-11-05T18:31:19.024Z,4.78
2022-11-05T18:33:45.946Z,4.40
2022-11-05T18:36:20.156Z,3.75
2022-11-05T18:38:47.947Z,3.05
2022-11-05T18:41:15.100Z,2.88
2022-11-05T18:43:41.627Z,3.45
2022-11-05T18:46:08.162Z,4.10
2022-11-05T18:48:35.303Z,4.97
2022-11-05T18:51:15.658Z,4.50
2022-11-05T18:53:42.473Z,6.78
2022-11-05T18:56:15.254Z,5.43
2022-11-05T18:58:41.908Z,4.68
2022-11-05T19:01:16.935Z,6.40
2022-11-05T19:03:44.035Z,7.15
2022-11-05T19:06:11.180Z,7.55
2022-11-05T19:08:37.775Z,5.93
2022-11-05T19:11:14.170Z,4.95
2022-11-05T19:13:40.837Z,3.80
2022-11-05T19:16:14.123Z,3.22
2022-11-05T19:18:41.449Z,5.78
2022-11-05T19:21:09.724Z,4.22
2022-11-05T19:23:36.473Z,3.70
2022-11-05T19:26:07.299Z,5.68
2022-11-05T19:28:34.411Z,3.55
2022-11-05T19:31:01.075Z,5.28
2022-11-05T19:33:28.034Z,5.45
2022-11-05T19:35:55.174Z,7.80
2022-11-05T19:38:22.724Z,11.45
2022-11-05T19:40:49.861Z,14.88
2022-11-05T19:43:16.402Z,16.70
2022-11-05T19:45:45.243Z,20.95
2022-11-05T19:48:17.846Z,23.55
2022-11-05T19:50:45.873Z,19.52
2022-11-05T19:53:12.504Z,17.80
2022-11-05T19:55:40.691Z,18.20
2022-11-05T19:58:08.192Z,12.40
2022-11-05T20:00:34.717Z,11.43
2022-11-05T20:03:01.480Z,9.07
2022-11-05T20:05:28.072Z,7.00
2022-11-05T20:07:55.360Z,6.65
2022-11-05T20:10:21.860Z,6.50
2022-11-05T20:12:48.336Z,5.90
2022-11-05T20:15:14.960Z,5.75
2022-11-05T20:17:41.450Z,6.45
2022-11-05T20:20:08.444Z,7.05
2022-11-05T20:22:34.929Z,7.47
2022-11-05T20:25:01.400Z,8.00
2022-11-05T20:27:28.870Z,7.40
2022-11-05T20:29:55.429Z,8.52
2022-11-05T20:32:21.892Z,7.72
2022-11-05T20:34:48.401Z,11.65
2022-11-05T20:37:15.007Z,10.40
2022-11-05T20:39:41.491Z,9.10
2022-11-05T20:42:07.951Z,8.90
2022-11-05T20:44:34.425Z,9.20
2022-11-05T20:47:00.935Z,8.95
2022-11-05T20:49:27.428Z,9.18
2022-11-05T20:51:54.653Z,9.88
2022-11-05T20:54:21.200Z,10.70
2022-11-05T20:56:47.724Z,11.30
2022-11-05T20:59:14.263Z,11.82
2022-11-05T21:01:40.895Z,14.30
2022-11-05T21:04:07.558Z,16.08
2022-11-05T21:06:34.173Z,16.02
2022-11-05T21:09:00.945Z,19.23
2022-11-05T21:11:28.021Z,23.80
2022-11-05T21:13:54.598Z,24.40
2022-11-05T21:16:21.593Z,20.40
2022-11-05T21:18:48.133Z,15.40
2022-11-05T21:21:19.565Z,15.57
2022-11-05T21:26:14.223Z,17.05
2022-11-05T21:28:41.759Z,15.60
2022-11-05T21:31:09.051Z,16.65
2022-11-05T21:33:35.761Z,15.82
2022-11-05T21:36:15.556Z,15.23
2022-11-05T21:38:42.280Z,17.30
2022-11-05T21:41:11.164Z,17.52
2022-11-05T21:43:38.744Z,18.15
2022-11-05T21:46:05.301Z,20.35
2022-11-05T21:48:32.288Z,21.50
2022-11-05T21:50:58.925Z,20.88
2022-11-05T21:53:25.945Z,22.77
2022-11-05T21:55:52.428Z,22.75
2022-11-05T21:58:19.235Z,22.73
2022-11-05T22:00:45.657Z,22.98
2022-11-05T22:03:12.151Z,22.10
2022-11-05T22:05:38.659Z,20.63
2022-11-05T22:08:05.317Z,19.88
2022-11-05T22:10:31.836Z,18.27
2022-11-05T22:12:58.316Z,17.30
2022-11-05T22:15:24.792Z,16.80
2022-11-05T22:17:51.325Z,18.25
2022-11-05T22:20:17.819Z,17.42
2022-11-05T22:22:45.053Z,16.77
2022-11-05T22:25:12.004Z,18.13
2022-11-05T22:27:38.485Z,18.10
2022-11-05T22:30:05.464Z,18.17
2022-11-05T22:32:32.017Z,15.68
2022-11-05T22:34:58.647Z,15.43
2022-11-05T22:37:25.086Z,16.45
2022-11-05T22:39:51.579Z,16.20
2022-11-05T22:42:18.147Z,15.35
2022-11-05T22:44:44.668Z,15.52
2022-11-05T22:47:11.232Z,16.45
2022-11-05T22:49:37.863Z,17.15
2022-11-05T22:52:04.634Z,18.27
2022-11-05T22:54:36.422Z,17.67
2022-11-05T22:57:05.462Z,17.63
2022-11-05T22:59:31.912Z,16.42
2022-11-05T23:01:58.613Z,15.70
2022-11-05T23:04:25.093Z,15.65
2022-11-05T23:06:51.642Z,15.15
2022-11-05T23:09:22.672Z,16.40
2022-11-05T23:11:51.646Z,17.35
2022-11-05T23:14:18.214Z,15.73
2022-11-05T23:16:44.916Z,14.57
2022-11-05T23:19:12.026Z,13.25
2022-11-05T23:21:38.463Z,13.02
2022-11-05T23:24:05.393Z,12.38
2022-11-05T23:26:36.819Z,10.80
2022-11-05T23:29:03.351Z,12.32
2022-11-05T23:31:30.020Z,10.73
2022-11-05T23:33:56.776Z,12.43
2022-11-05T23:36:23.209Z,12.18
2022-11-05T23:38:49.652Z,11.82
2022-11-05T23:41:16.121Z,14.45
2022-11-05T23:43:42.590Z,12.88
2022-11-05T23:46:09.049Z,13.57
2022-11-05T23:48:37.372Z,13.68
2022-11-05T23:51:09.767Z,13.02
2022-11-05T23:53:38.365Z,13.73
2022-11-05T23:56:08.200Z,13.82
2022-11-05T23:58:36.212Z,13.18
